Lake City, CO (81235)

11:44 PM MDT on July 23, 2016 (GMT -0600)
Lake City Heights | | Change Station

Elev 8858 ft 38.02 °N, 107.31 °W | Updated 42 seconds ago

Clear
Clear
54.9 °F
Feels Like 54.9 °F
N
3.1
Wind Variable Wind from WSW
Gusts 3.1 mph

Today
High -- | Low -- °F
--% Chance of Precip.
Yesterday
High -- | Low -- °F
Precip. -- in
Pressure 30.47 in
Visibility 10.0 miles
Clouds Clear
Dew Point 34 °F
Humidity 46%
Rainfall 0.12 in
Snow Depth Not available.
6:05 AM 8:25 PM
Waning Gibbous, 79% visible
METAR KTEX 240535Z AUTO 15006KT 10SM CLR 16/04 A3047 RMK AO2 T01620042
Pressure 30.47 in
Visibility 10.0 miles
Clouds Clear
Dew Point 34 °F
Humidity 46%
Rainfall 0.12 in
Snow Depth Not available.
6:05 AM 8:25 PM
Waning Gibbous, 79% visible
METAR KTEX 240535Z AUTO 15006KT 10SM CLR 16/04 A3047 RMK AO2 T01620042

10-Day Weather Forecast

Almanac

Astronomy

Jul. 23, 2016 Rise Set
Actual Time
Civil Twilight
Nautical Twilight
Astronomical Twilight
Moon
Length of Visible Light
Length of Day
Tomorrow will be .
, % of the Moon is Illuminated

Today's Extremes

State Highs State Lows

Community

WunderPhotos

Upload Photos

1,927,039 photos uploaded!

WunderBlog® & News

Nearby

Air Quality

  Air Quality AQ Index Pollutant
Not available.

Snow Depth

Station Depth Elevation

Earthquake Activity

City Distance Mag. Time & Date
Minimum magnitude displayed is 2.5.

Coastal Water Temperatures

Place Temperature

Stations

Nearby Weather Stations

Station Location Temp. Windchill Dew Point Humidity Wind Precip. Elev Updated Type
                   

Watches & Warnings

There are currently no watches in effect.